Horsefly, Canada
Current Conditions -  °F | °C
As of 11:00 PM on Saturday 25 Oct 2014 (Local Time) from CYWL Reporting Station
Light Rain Light Rain  
Wind Chill: 26°   Ceiling: 1100
Heat Index: 32°   Visibility: 2mi
Dew Point: 32°   Wind: 7mph
Humidity: 100%   Direction: 290°WNW
Pressure: 29.37"   Gusts: NA
Location:  52.33°N, 121.42°W
Report Text: CYWL 260600Z 29006KT 2SM -RA BR OVC011 00/00 A2937 RMK SC8 SLP975
Loading
Personal Weather Stations






























Interactive Weather Map
Tropical Storm Tracking
New forecast layout! Learn more

10-Day Weather Forecast

Advertisements
Track Severe Weather on mobile